Time;durP1;ratioP1;P1;durP2;ratioP2;P2;SDS_P1;SDS_P2;PMS_P1;PMS_P2;Temp;Humidity;BMP_temperature;BMP_pressure;BME280_temperature;BME280_humidity;BME280_pressure;Samples;Min_cycle;Max_cycle;Signal;HPM_P1;HPM_P2
2022/11/17 01:32:26;;;;;;;;;;;17.80;46.90;;;;;;6134479;23;20358;-71
2022/11/17 01:34:52;;;;;;;;;;;17.90;46.80;;;;;;6152871;23;19913;-65
2022/11/17 01:37:19;;;;;;;;;;;17.90;42.20;;;;;;6150684;23;19983;-66
2022/11/17 01:39:46;;;;;;;;;;;18.00;46.60;;;;;;6152730;23;19983;-66
2022/11/17 01:42:21;;;;;;;;;;;18.00;46.00;;;;;;6153014;23;19905;-66
2022/11/17 01:44:58;;;;;;;;;;;18.00;48.10;;;;;;6152561;23;19909;-66
2022/11/17 01:47:28;;;;;;;;;;;18.10;47.60;;;;;;6152237;23;19913;-66
2022/11/17 01:50:14;;;;;;;;;;;17.90;42.90;;;;;;6152778;23;19908;-65
2022/11/17 01:52:41;;;;;;;;;;;17.90;48.30;;;;;;6132453;23;19999;-66
2022/11/17 01:55:08;;;;;;;;;;;17.80;46.80;;;;;;6127097;23;20338;-65
2022/11/17 01:57:49;;;;;;;;;;;17.80;48.20;;;;;;6127909;23;20358;-66
2022/11/17 02:00:16;;;;;;;;;;;17.60;48.40;;;;;;6153089;23;19904;-65
2022/11/17 02:02:42;;;;;;;;;;;17.60;50.40;;;;;;6154293;23;19940;-66
2022/11/17 02:05:38;;;;;;;;;;;17.60;51.50;;;;;;6127878;23;19996;-65
2022/11/17 02:08:05;;;;;;;;;;;17.60;48.60;;;;;;6124876;23;20246;-66
2022/11/17 02:10:32;;;;;;;;;;;17.80;52.60;;;;;;6153928;23;19936;-66
2022/11/17 02:12:59;;;;;;;;;;;17.80;49.50;;;;;;6127815;23;19912;-65
2022/11/17 02:15:26;;;;;;;;;;;17.90;51.60;;;;;;6126584;23;19912;-66
2022/11/17 02:17:53;;;;;;;;;;;17.90;51.70;;;;;;6153318;23;20247;-66
2022/11/17 02:20:37;;;;;;;;;;;17.80;50.30;;;;;;6127620;23;19904;-66
2022/11/17 02:23:04;;;;;;;;;;;17.90;50.30;;;;;;6152823;23;19952;-66
2022/11/17 02:25:48;;;;;;;;;;;17.80;49.70;;;;;;6152276;23;20353;-65
2022/11/17 02:28:18;;;;;;;;;;;17.80;50.60;;;;;;6152568;23;19905;-66
2022/11/17 02:30:45;;;;;;;;;;;17.70;50.00;;;;;;6149058;23;19912;-67
2022/11/17 03:02:45;;;;;;;;;;;18.00;51.40;;;;;;6125750;23;20337;-67
2022/11/17 03:05:30;;;;;;;;;;;18.10;51.50;;;;;;6125789;23;19917;-64
2022/11/17 03:08:00;;;;;;;;;;;18.10;52.30;;;;;;6124113;23;20847;-64
2022/11/17 03:10:53;;;;;;;;;;;18.10;50.50;;;;;;6099413;23;19987;-64
2022/11/17 03:13:39;;;;;;;;;;;18.00;50.70;;;;;;6119239;23;19954;-64
2022/11/17 03:16:05;;;;;;;;;;;18.00;51.30;;;;;;6122398;23;19909;-66
2022/11/17 03:18:39;;;;;;;;;;;18.00;53.40;;;;;;6125296;23;19905;-66
2022/11/17 03:21:10;;;;;;;;;;;18.00;52.50;;;;;;6099371;23;19905;-66
2022/11/17 03:23:39;;;;;;;;;;;18.00;51.20;;;;;;6073905;23;19909;-64
2022/11/17 03:26:07;;;;;;;;;;;18.00;51.70;;;;;;6124205;23;19996;-65
2022/11/17 03:28:33;;;;;;;;;;;18.00;52.80;;;;;;6099337;23;20480;-63
2022/11/17 03:31:00;;;;;;;;;;;18.10;50.70;;;;;;6097375;23;19995;-65
2022/11/17 03:33:27;;;;;;;;;;;18.00;52.70;;;;;;6122858;23;19913;-65
2022/11/17 03:35:59;;;;;;;;;;;18.00;52.70;;;;;;6099742;23;19912;-65
2022/11/17 03:38:26;;;;;;;;;;;18.00;52.10;;;;;;6097815;23;20011;-67
2022/11/17 03:40:53;;;;;;;;;;;18.00;52.80;;;;;;6095692;23;19908;-66
2022/11/17 03:43:20;;;;;;;;;;;18.00;53.10;;;;;;6122905;23;20346;-66
2022/11/17 03:45:48;;;;;;;;;;;18.00;54.60;;;;;;6094359;23;19983;-64
2022/11/17 03:48:21;;;;;;;;;;;18.00;53.50;;;;;;6095463;23;19909;-66
2022/11/17 03:50:47;;;;;;;;;;;17.80;53.40;;;;;;6119686;23;19919;-66
2022/11/17 03:53:14;;;;;;;;;;;17.80;54.00;;;;;;6122234;23;20212;-67
2022/11/17 03:55:40;;;;;;;;;;;17.80;52.00;;;;;;6121707;23;19909;-67
2022/11/17 03:58:08;;;;;;;;;;;17.70;52.80;;;;;;6122255;23;19905;-67
2022/11/17 04:00:35;;;;;;;;;;;17.80;55.40;;;;;;6095177;23;19948;-67
2022/11/17 04:03:02;;;;;;;;;;;18.00;53.90;;;;;;6096076;23;20766;-65
2022/11/17 04:05:29;;;;;;;;;;;17.90;53.30;;;;;;6124291;23;20197;-67
2022/11/17 04:07:55;;;;;;;;;;;17.90;52.70;;;;;;6122471;23;19912;-66
2022/11/17 04:10:24;;;;;;;;;;;17.80;52.70;;;;;;6095235;23;19905;-67
2022/11/17 04:18:20;;;;;;;;;;;17.80;54.20;;;;;;6121951;23;19920;-67
2022/11/17 04:20:54;;;;;;;;;;;17.80;51.10;;;;;;6121759;23;20396;-66
2022/11/17 04:23:20;;;;;;;;;;;17.80;51.90;;;;;;6096235;23;19944;-65
2022/11/17 04:28:35;;;;;;;;;;;17.80;54.10;;;;;;6122038;23;19937;-67
2022/11/17 04:31:06;;;;;;;;;;;17.80;51.70;;;;;;6096719;23;19913;-65
2022/11/17 04:33:33;;;;;;;;;;;17.80;51.70;;;;;;6121815;23;20321;-66
2022/11/17 04:36:00;;;;;;;;;;;17.90;52.10;;;;;;6122376;23;19909;-65
2022/11/17 04:38:26;;;;;;;;;;;18.00;50.10;;;;;;6122496;23;19913;-66
2022/11/17 04:43:40;;;;;;;;;;;17.80;51.90;;;;;;6121941;23;19915;-67
2022/11/17 04:46:07;;;;;;;;;;;17.70;50.80;;;;;;6119679;23;19920;-66
2022/11/17 04:48:33;;;;;;;;;;;17.50;50.80;;;;;;6121786;23;19920;-66
2022/11/17 04:51:00;;;;;;;;;;;17.60;49.20;;;;;;6121715;23;20368;-66
2022/11/17 04:53:28;;;;;;;;;;;17.70;51.50;;;;;;6121715;23;19912;-66
2022/11/17 04:55:58;;;;;;;;;;;17.70;49.60;;;;;;6093941;23;19956;-66
2022/11/17 04:58:25;;;;;;;;;;;17.80;52.90;;;;;;6096111;23;19913;-66
2022/11/17 05:00:52;;;;;;;;;;;17.80;52.80;;;;;;6095673;23;19916;-66
2022/11/17 05:03:18;;;;;;;;;;;17.80;54.10;;;;;;6121916;23;19909;-65
2022/11/17 05:05:45;;;;;;;;;;;17.80;52.10;;;;;;6121889;23;19912;-66
2022/11/17 05:08:12;;;;;;;;;;;17.80;51.50;;;;;;6122000;23;19948;-66
2022/11/17 05:13:26;;;;;;;;;;;17.60;55.30;;;;;;6121639;23;19932;-65
2022/11/17 05:18:38;;;;;;;;;;;17.70;56.80;;;;;;6121576;23;19928;-66
2022/11/17 05:21:05;;;;;;;;;;;17.70;55.20;;;;;;6121503;23;20289;-65
2022/11/17 05:26:16;;;;;;;;;;;17.70;53.80;;;;;;6121555;23;19990;-66
2022/11/17 05:28:43;;;;;;;;;;;17.60;54.50;;;;;;6121590;23;19963;-64
2022/11/17 05:31:10;;;;;;;;;;;17.70;56.40;;;;;;6123308;23;19909;-65
2022/11/17 05:33:37;;;;;;;;;;;17.70;55.50;;;;;;6098143;23;20368;-66
2022/11/17 05:36:03;;;;;;;;;;;17.60;54.30;;;;;;6123719;23;19980;-66
2022/11/17 05:38:30;;;;;;;;;;;17.60;54.00;;;;;;6123463;23;19913;-66
2022/11/17 05:40:57;;;;;;;;;;;17.70;54.30;;;;;;6123289;23;20276;-66
2022/11/17 05:43:23;;;;;;;;;;;17.70;54.10;;;;;;6122979;23;19909;-66
2022/11/17 05:45:50;;;;;;;;;;;17.60;54.80;;;;;;6095822;23;20244;-66
2022/11/17 05:48:17;;;;;;;;;;;17.50;56.10;;;;;;6123841;23;19916;-66
2022/11/17 05:50:43;;;;;;;;;;;17.50;55.50;;;;;;6123633;23;19916;-66
2022/11/17 05:53:10;;;;;;;;;;;17.40;55.70;;;;;;6098050;23;19926;-66
2022/11/17 05:55:37;;;;;;;;;;;17.40;57.20;;;;;;6121115;23;19913;-66
2022/11/17 05:58:04;;;;;;;;;;;17.50;55.20;;;;;;6097403;23;19912;-65
2022/11/17 06:00:31;;;;;;;;;;;17.50;54.30;;;;;;6096284;23;19916;-70
2022/11/17 06:02:59;;;;;;;;;;;17.40;54.30;;;;;;6096415;23;19920;-66
2022/11/17 06:05:25;;;;;;;;;;;17.40;54.40;;;;;;6096023;23;19921;-67
2022/11/17 06:07:57;;;;;;;;;;;17.50;56.20;;;;;;6122284;23;20155;-66
2022/11/17 06:10:24;;;;;;;;;;;17.50;56.00;;;;;;6122175;23;19905;-65
2022/11/17 06:12:50;;;;;;;;;;;17.50;55.40;;;;;;6072610;23;19916;-67
2022/11/17 06:15:17;;;;;;;;;;;17.40;56.20;;;;;;6119857;23;20254;-66
2022/11/17 06:17:45;;;;;;;;;;;17.30;56.30;;;;;;6096627;23;19915;-66
2022/11/17 06:20:13;;;;;;;;;;;17.30;57.30;;;;;;6095919;23;19917;-67
2022/11/17 06:22:40;;;;;;;;;;;17.30;56.40;;;;;;6097662;23;19912;-67
2022/11/17 06:25:06;;;;;;;;;;;17.30;57.10;;;;;;6097742;23;20038;-67
2022/11/17 06:27:33;;;;;;;;;;;17.40;57.60;;;;;;6123308;23;20016;-66
2022/11/17 06:30:02;;;;;;;;;;;17.50;58.60;;;;;;6123061;23;19911;-67
2022/11/17 06:32:28;;;;;;;;;;;17.50;58.50;;;;;;6123162;23;20225;-65
2022/11/17 06:34:55;;;;;;;;;;;17.50;58.60;;;;;;6122663;23;19909;-67
2022/11/17 06:37:21;;;;;;;;;;;17.50;55.00;;;;;;6095408;23;20024;-67
2022/11/17 06:39:48;;;;;;;;;;;17.40;55.70;;;;;;6122725;23;20294;-67
2022/11/17 06:42:15;;;;;;;;;;;17.40;55.50;;;;;;6122627;23;19954;-67
2022/11/17 06:44:41;;;;;;;;;;;17.30;56.10;;;;;;6122257;23;19913;-66
2022/11/17 06:47:08;;;;;;;;;;;17.30;57.70;;;;;;6121874;23;20170;-67
2022/11/17 06:49:34;;;;;;;;;;;17.30;56.90;;;;;;6122838;23;19905;-66
2022/11/17 06:52:01;;;;;;;;;;;17.30;55.20;;;;;;6096343;23;20292;-66
2022/11/17 06:54:28;;;;;;;;;;;17.30;56.70;;;;;;6120353;23;19905;-66
2022/11/17 06:56:54;;;;;;;;;;;17.20;56.90;;;;;;6122731;23;19925;-66
2022/11/17 06:59:21;;;;;;;;;;;17.20;58.40;;;;;;6122318;23;19916;-67
2022/11/17 07:01:47;;;;;;;;;;;17.20;59.10;;;;;;6122473;23;19917;-68
2022/11/17 07:04:14;;;;;;;;;;;17.20;56.50;;;;;;6122457;23;20044;-67
2022/11/17 07:06:40;;;;;;;;;;;17.20;57.40;;;;;;6122227;23;20012;-66
2022/11/17 07:09:07;;;;;;;;;;;17.20;57.00;;;;;;6122278;23;20325;-66
2022/11/17 07:11:35;;;;;;;;;;;17.20;57.90;;;;;;6122785;23;19989;-66
2022/11/17 07:14:01;;;;;;;;;;;17.20;56.10;;;;;;6096967;23;19964;-66
2022/11/17 07:16:29;;;;;;;;;;;17.20;56.20;;;;;;6120583;23;19905;-66
2022/11/17 07:18:58;;;;;;;;;;;17.30;58.00;;;;;;6122726;23;19905;-67
2022/11/17 07:21:24;;;;;;;;;;;17.20;58.30;;;;;;6122719;23;20280;-67
2022/11/17 07:23:51;;;;;;;;;;;17.20;57.90;;;;;;6122606;23;19916;-67
2022/11/17 07:26:17;;;;;;;;;;;17.20;58.20;;;;;;6123243;23;20321;-67
2022/11/17 07:28:44;;;;;;;;;;;17.20;58.00;;;;;;6123203;23;19914;-67
2022/11/17 07:31:11;;;;;;;;;;;17.20;58.10;;;;;;6123302;23;20384;-67
2022/11/17 07:33:37;;;;;;;;;;;17.20;57.50;;;;;;6095663;23;19912;-67
2022/11/17 07:36:04;;;;;;;;;;;17.20;57.40;;;;;;6123246;23;19913;-67
2022/11/17 07:38:32;;;;;;;;;;;17.20;57.00;;;;;;6122444;23;19905;-67
2022/11/17 07:40:59;;;;;;;;;;;17.20;57.40;;;;;;6122839;23;19964;-67
2022/11/17 07:43:26;;;;;;;;;;;17.20;58.40;;;;;;6097318;23;19967;-66
2022/11/17 07:45:53;;;;;;;;;;;17.20;58.00;;;;;;6096321;23;20327;-65
2022/11/17 10:18:18;;;;;;;;;;;16.50;64.60;;;;;;6088790;23;20790;-65
2022/11/17 10:20:45;;;;;;;;;;;16.50;64.70;;;;;;6092165;23;19928;-66
2022/11/17 10:23:17;;;;;;;;;;;16.50;65.80;;;;;;6092783;23;19913;-64
2022/11/17 10:25:44;;;;;;;;;;;16.60;66.30;;;;;;6068061;23;19967;-65
2022/11/17 10:28:31;;;;;;;;;;;16.60;65.40;;;;;;6067893;23;20332;-66
2022/11/17 10:31:01;;;;;;;;;;;16.60;65.50;;;;;;6093145;23;20329;-65
2022/11/17 10:33:34;;;;;;;;;;;16.60;65.20;;;;;;6067661;23;19909;-68
2022/11/17 10:36:00;;;;;;;;;;;16.60;65.50;;;;;;6093326;23;19980;-68
2022/11/17 10:38:27;;;;;;;;;;;16.50;65.90;;;;;;6094232;23;19912;-67
2022/11/17 10:40:54;;;;;;;;;;;16.60;66.00;;;;;;6094345;23;19909;-66
2022/11/17 10:43:31;;;;;;;;;;;16.50;65.30;;;;;;6094066;23;20274;-67
2022/11/17 10:46:12;;;;;;;;;;;16.50;66.20;;;;;;6068079;23;19966;-68
2022/11/17 10:48:39;;;;;;;;;;;16.50;67.10;;;;;;6067772;23;19917;-67
2022/11/17 10:51:18;;;;;;;;;;;16.50;67.00;;;;;;6093530;23;19913;-67
2022/11/17 10:53:47;;;;;;;;;;;16.60;66.90;;;;;;6093672;23;19909;-68
2022/11/17 10:56:15;;;;;;;;;;;16.60;67.10;;;;;;6065625;23;19906;-67
2022/11/17 10:58:51;;;;;;;;;;;16.60;67.30;;;;;;6068069;23;20335;-66
2022/11/17 11:01:26;;;;;;;;;;;16.50;66.10;;;;;;6092749;23;19945;-66
2022/11/17 11:03:52;;;;;;;;;;;16.50;66.40;;;;;;6069408;23;19913;-67
2022/11/17 11:06:26;;;;;;;;;;;16.50;66.20;;;;;;6096299;23;19914;-66
2022/11/17 11:09:11;;;;;;;;;;;16.50;66.50;;;;;;6070538;23;20268;-67
2022/11/17 11:11:47;;;;;;;;;;;16.50;66.70;;;;;;6096411;23;19905;-66
2022/11/17 11:14:18;;;;;;;;;;;16.50;66.20;;;;;;6070829;23;19937;-67
2022/11/17 11:16:46;;;;;;;;;;;16.50;66.50;;;;;;6095895;23;19913;-67
2022/11/17 11:19:14;;;;;;;;;;;16.40;67.50;;;;;;6082885;23;19924;-66
2022/11/17 11:21:58;;;;;;;;;;;16.50;66.70;;;;;;6100025;23;20342;-66
2022/11/17 11:24:28;;;;;;;;;;;16.50;67.60;;;;;;6125456;23;19913;-66
2022/11/17 11:27:01;;;;;;;;;;;16.50;67.20;;;;;;6125311;23;19913;-66
2022/11/17 11:29:30;;;;;;;;;;;16.50;66.90;;;;;;6125642;23;19976;-66
2022/11/17 11:31:57;;;;;;;;;;;16.50;66.70;;;;;;6125282;23;19905;-66
2022/11/17 11:34:50;;;;;;;;;;;16.50;66.90;;;;;;6125772;23;20332;-66
2022/11/17 11:37:24;;;;;;;;;;;16.50;67.40;;;;;;6084489;23;19964;-66
2022/11/17 11:39:58;;;;;;;;;;;16.50;66.90;;;;;;6099294;23;19952;-66
2022/11/17 11:42:43;;;;;;;;;;;16.50;66.20;;;;;;6099580;23;20351;-66
2022/11/17 11:45:16;;;;;;;;;;;16.50;67.20;;;;;;6124674;23;20339;-67
2022/11/17 11:48:01;;;;;;;;;;;16.50;66.30;;;;;;6099459;23;19905;-66
2022/11/17 11:50:29;;;;;;;;;;;16.50;67.00;;;;;;6099290;23;19905;-66
2022/11/17 11:52:58;;;;;;;;;;;16.50;67.80;;;;;;6124561;23;19905;-66
2022/11/17 11:55:27;;;;;;;;;;;16.50;67.00;;;;;;6099527;23;19905;-66
2022/11/17 11:58:01;;;;;;;;;;;16.50;67.00;;;;;;6099412;23;19909;-66
2022/11/17 12:00:28;;;;;;;;;;;16.50;66.80;;;;;;6124766;23;19933;-66
2022/11/17 12:02:57;;;;;;;;;;;16.50;67.20;;;;;;6125164;23;19905;-66
2022/11/17 12:05:26;;;;;;;;;;;16.40;67.30;;;;;;6099463;23;19917;-66
2022/11/17 12:07:55;;;;;;;;;;;16.50;66.90;;;;;;6099568;23;19905;-67
2022/11/17 12:10:25;;;;;;;;;;;16.50;67.40;;;;;;6099065;23;19960;-66
2022/11/17 12:12:51;;;;;;;;;;;16.50;67.00;;;;;;6125512;23;19909;-66
2022/11/17 12:15:18;;;;;;;;;;;16.50;67.30;;;;;;6125347;23;19964;-66
2022/11/17 12:18:05;;;;;;;;;;;16.50;67.60;;;;;;6125336;23;19916;-66
2022/11/17 12:20:37;;;;;;;;;;;16.40;66.80;;;;;;6124593;23;19917;-64
2022/11/17 12:23:11;;;;;;;;;;;16.40;66.90;;;;;;6124848;23;19905;-65
2022/11/17 12:25:43;;;;;;;;;;;16.50;67.40;;;;;;6125199;23;19924;-64
2022/11/17 12:28:28;;;;;;;;;;;16.40;67.20;;;;;;6125190;23;20339;-64
2022/11/17 12:30:56;;;;;;;;;;;16.50;67.30;;;;;;6124732;23;19908;-66
2022/11/17 12:33:22;;;;;;;;;;;16.50;67.30;;;;;;6124197;23;19911;-66
2022/11/17 12:36:15;;;;;;;;;;;16.40;66.40;;;;;;6099224;23;19905;-66
2022/11/17 12:38:42;;;;;;;;;;;16.50;66.50;;;;;;6079911;23;19911;-67
2022/11/17 12:41:08;;;;;;;;;;;16.50;66.70;;;;;;6124677;23;19905;-66
2022/11/17 12:43:35;;;;;;;;;;;16.40;65.70;;;;;;6099417;23;19905;-66
2022/11/17 12:46:13;;;;;;;;;;;16.50;65.90;;;;;;6098729;23;20332;-66
2022/11/17 12:48:43;;;;;;;;;;;16.50;65.70;;;;;;6099251;23;19975;-66
2022/11/17 12:51:35;;;;;;;;;;;16.40;65.20;;;;;;6099113;23;19904;-67
2022/11/17 12:54:11;;;;;;;;;;;16.40;64.80;;;;;;6119698;23;19909;-66
2022/11/17 12:56:45;;;;;;;;;;;16.40;64.70;;;;;;6125085;23;19995;-66
2022/11/17 12:59:15;;;;;;;;;;;16.40;64.80;;;;;;6098776;23;19905;-67
2022/11/17 13:01:50;;;;;;;;;;;16.40;64.70;;;;;;6125345;23;20323;-66
2022/11/17 13:04:18;;;;;;;;;;;16.50;64.60;;;;;;6125274;23;19905;-66
2022/11/17 13:07:00;;;;;;;;;;;16.50;65.30;;;;;;6098872;23;20292;-66
2022/11/17 13:09:27;;;;;;;;;;;16.40;66.60;;;;;;6124351;23;19929;-66
2022/11/17 13:12:01;;;;;;;;;;;16.40;67.20;;;;;;6099437;23;20317;-66
2022/11/17 13:14:27;;;;;;;;;;;16.30;67.50;;;;;;6124946;23;19909;-66
2022/11/17 13:16:54;;;;;;;;;;;16.30;67.80;;;;;;6125090;23;19940;-66
2022/11/17 13:19:31;;;;;;;;;;;16.30;68.10;;;;;;6124465;23;20256;-66
2022/11/17 13:21:59;;;;;;;;;;;16.20;68.30;;;;;;6098431;23;19909;-66
2022/11/17 13:24:35;;;;;;;;;;;16.20;68.50;;;;;;6124394;23;20340;-67
2022/11/17 13:27:06;;;;;;;;;;;16.20;68.80;;;;;;6098464;23;19920;-66
2022/11/17 13:29:32;;;;;;;;;;;16.10;68.80;;;;;;6124888;23;19920;-66
2022/11/17 13:32:15;;;;;;;;;;;16.10;69.30;;;;;;6124652;23;19909;-66
2022/11/17 13:34:46;;;;;;;;;;;16.10;69.10;;;;;;6124624;23;19905;-64
2022/11/17 13:39:58;;;;;;;;;;;16.00;68.70;;;;;;6129455;23;20350;-71
2022/11/17 13:42:26;;;;;;;;;;;16.00;69.60;;;;;;6124266;23;19967;-70
2022/11/17 13:44:53;;;;;;;;;;;15.90;68.80;;;;;;6124580;23;19960;-71
2022/11/17 13:47:20;;;;;;;;;;;15.90;69.00;;;;;;6098912;23;20241;-71
2022/11/17 13:49:47;;;;;;;;;;;15.80;68.90;;;;;;6124724;23;19909;-71
2022/11/17 13:52:29;;;;;;;;;;;15.90;69.00;;;;;;6126729;23;19914;-71
2022/11/17 13:54:56;;;;;;;;;;;15.80;69.20;;;;;;6126681;23;20306;-70
2022/11/17 13:57:24;;;;;;;;;;;15.80;68.90;;;;;;6126872;23;19911;-71
2022/11/17 13:59:51;;;;;;;;;;;15.80;68.80;;;;;;6100902;23;20384;-71
2022/11/17 14:02:20;;;;;;;;;;;15.80;69.30;;;;;;6126563;23;19905;-71
2022/11/17 14:05:08;;;;;;;;;;;15.70;69.30;;;;;;6126112;23;19909;-70
2022/11/17 14:07:35;;;;;;;;;;;15.70;69.00;;;;;;6125383;23;19951;-70
2022/11/17 14:10:12;;;;;;;;;;;15.70;68.90;;;;;;6126283;23;19909;-71
2022/11/17 14:12:38;;;;;;;;;;;15.70;69.20;;;;;;6126986;23;19905;-70
2022/11/17 14:15:21;;;;;;;;;;;15.70;69.00;;;;;;6126275;23;19983;-70
2022/11/17 14:17:51;;;;;;;;;;;15.70;69.00;;;;;;6126280;23;20209;-71
2022/11/17 14:20:19;;;;;;;;;;;15.70;68.70;;;;;;6100300;23;19905;-70
2022/11/17 14:23:07;;;;;;;;;;;15.60;69.10;;;;;;6126116;23;19968;-71
2022/11/17 14:25:34;;;;;;;;;;;15.60;69.00;;;;;;6114911;23;19917;-70
2022/11/17 14:28:00;;;;;;;;;;;15.70;69.30;;;;;;6100729;23;20228;-70
2022/11/17 14:30:27;;;;;;;;;;;15.60;69.10;;;;;;6126150;23;19904;-71
2022/11/17 14:32:53;;;;;;;;;;;15.60;69.30;;;;;;6126448;23;19905;-71
2022/11/17 14:35:20;;;;;;;;;;;15.60;69.00;;;;;;6126635;23;19929;-70
2022/11/17 14:37:46;;;;;;;;;;;15.60;68.90;;;;;;6126423;23;19963;-71
2022/11/17 14:40:17;;;;;;;;;;;15.50;68.90;;;;;;6126405;23;19945;-71
2022/11/17 14:42:43;;;;;;;;;;;15.60;68.60;;;;;;6100386;23;20325;-71
2022/11/17 14:45:14;;;;;;;;;;;15.50;68.80;;;;;;6126480;23;20329;-71
2022/11/17 14:47:40;;;;;;;;;;;15.50;69.20;;;;;;6126494;23;19909;-71
2022/11/17 14:50:08;;;;;;;;;;;15.50;69.00;;;;;;6126049;23;20351;-71
2022/11/17 14:52:35;;;;;;;;;;;15.40;68.80;;;;;;6126487;23;19959;-71
2022/11/17 14:55:01;;;;;;;;;;;15.50;68.50;;;;;;6099988;23;20221;-70
2022/11/17 14:57:28;;;;;;;;;;;15.50;68.60;;;;;;6126306;23;19912;-71
2022/11/17 14:59:54;;;;;;;;;;;15.40;68.90;;;;;;6126045;23;19905;-71
2022/11/17 15:02:21;;;;;;;;;;;15.40;68.70;;;;;;6125908;23;19963;-71
2022/11/17 15:04:48;;;;;;;;;;;15.40;69.20;;;;;;6126117;23;20296;-71
2022/11/17 15:07:15;;;;;;;;;;;15.40;68.60;;;;;;6125491;23;19920;-71
2022/11/17 15:09:41;;;;;;;;;;;15.40;68.70;;;;;;6125831;23;19905;-71
2022/11/17 15:12:08;;;;;;;;;;;15.40;68.80;;;;;;6125707;23;19905;-70
2022/11/17 15:14:34;;;;;;;;;;;15.30;69.00;;;;;;6125957;23;20003;-71
2022/11/17 15:17:01;;;;;;;;;;;15.30;68.70;;;;;;6126174;23;19959;-71
2022/11/17 15:19:28;;;;;;;;;;;15.30;68.50;;;;;;6125037;23;19909;-70
2022/11/17 15:21:54;;;;;;;;;;;15.30;68.90;;;;;;6126434;23;19905;-71
2022/11/17 15:24:21;;;;;;;;;;;15.30;69.00;;;;;;6125878;23;20800;-71
2022/11/17 15:26:48;;;;;;;;;;;15.30;69.30;;;;;;6126183;23;19916;-71
2022/11/17 15:29:14;;;;;;;;;;;15.30;69.30;;;;;;6126060;23;19908;-70
2022/11/17 15:31:41;;;;;;;;;;;15.20;69.30;;;;;;6125978;23;19905;-70
2022/11/17 15:34:11;;;;;;;;;;;15.20;69.40;;;;;;6125911;23;19909;-70
2022/11/17 15:36:37;;;;;;;;;;;15.20;69.00;;;;;;6126302;23;19912;-71
2022/11/17 15:39:04;;;;;;;;;;;15.20;69.40;;;;;;6126493;23;19936;-71
2022/11/17 15:41:30;;;;;;;;;;;15.20;69.60;;;;;;6125614;23;19917;-70
2022/11/17 15:43:57;;;;;;;;;;;15.20;69.40;;;;;;6126023;23;20300;-71
2022/11/17 15:46:24;;;;;;;;;;;15.10;69.80;;;;;;6125975;23;19942;-70
2022/11/17 16:11:08;;;;;;;;;;;14.90;70.30;;;;;;6119895;23;19932;-70
2022/11/17 16:13:35;;;;;;;;;;;14.80;70.80;;;;;;6154101;23;19927;-71
2022/11/17 16:16:01;;;;;;;;;;;14.80;70.60;;;;;;6154718;23;20335;-70
2022/11/17 16:18:28;;;;;;;;;;;14.80;70.60;;;;;;6155021;23;19928;-71
2022/11/17 16:20:59;;;;;;;;;;;14.80;70.80;;;;;;6154552;23;19905;-71
2022/11/17 16:23:25;;;;;;;;;;;14.80;70.50;;;;;;6128574;23;19905;-70
2022/11/17 16:25:52;;;;;;;;;;;14.80;70.70;;;;;;6154968;23;19913;-70
2022/11/17 16:28:19;;;;;;;;;;;14.70;71.00;;;;;;6154807;23;20252;-70
2022/11/17 16:30:45;;;;;;;;;;;14.70;71.00;;;;;;6155172;23;19980;-71
2022/11/17 16:33:12;;;;;;;;;;;14.70;71.30;;;;;;6154727;23;19949;-71
2022/11/17 16:35:39;;;;;;;;;;;14.70;71.30;;;;;;6154369;23;19995;-70
2022/11/17 16:38:06;;;;;;;;;;;14.70;71.70;;;;;;6155000;23;19904;-70
2022/11/17 16:40:34;;;;;;;;;;;14.70;72.10;;;;;;6154404;23;20356;-70
2022/11/17 16:43:01;;;;;;;;;;;14.60;72.00;;;;;;6155599;23;19905;-71
2022/11/17 16:45:27;;;;;;;;;;;14.50;72.20;;;;;;6154596;23;19939;-70
2022/11/17 16:47:54;;;;;;;;;;;14.50;72.30;;;;;;6154720;23;19904;-71
2022/11/17 16:50:20;;;;;;;;;;;14.50;72.50;;;;;;6154604;23;19927;-71
2022/11/17 16:52:47;;;;;;;;;;;14.50;72.40;;;;;;6155121;23;19912;-71
2022/11/17 16:55:13;;;;;;;;;;;14.40;72.10;;;;;;6154928;23;19924;-71
2022/11/17 16:57:40;;;;;;;;;;;14.40;72.10;;;;;;6153225;23;19904;-70
2022/11/17 17:00:07;;;;;;;;;;;14.40;72.40;;;;;;6154732;23;19912;-70
2022/11/17 17:02:34;;;;;;;;;;;14.40;72.50;;;;;;6155211;23;19995;-71
2022/11/17 17:05:00;;;;;;;;;;;14.40;72.30;;;;;;6155267;23;19913;-70
2022/11/17 17:07:27;;;;;;;;;;;14.40;72.20;;;;;;6154303;23;19919;-71
2022/11/17 17:09:53;;;;;;;;;;;14.30;72.00;;;;;;6153809;23;19905;-71
2022/11/17 21:09:42;;;;;;;;;;;16.80;61.40;;;;;;6139746;23;20019;-69
2022/11/17 21:12:09;;;;;;;;;;;17.00;56.40;;;;;;6153567;23;19913;-68
2022/11/17 21:14:36;;;;;;;;;;;17.10;59.60;;;;;;6153355;23;19909;-69
2022/11/17 21:17:02;;;;;;;;;;;17.10;56.70;;;;;;6153620;23;19905;-69
2022/11/17 21:19:29;;;;;;;;;;;17.10;57.70;;;;;;6153200;23;20332;-68
2022/11/17 21:21:56;;;;;;;;;;;17.10;56.70;;;;;;6153713;23;20387;-70
2022/11/17 21:24:22;;;;;;;;;;;17.10;58.70;;;;;;6153803;23;19905;-71
2022/11/17 21:26:53;;;;;;;;;;;17.00;58.20;;;;;;6154431;23;19913;-71
2022/11/17 21:29:19;;;;;;;;;;;17.00;58.00;;;;;;6154444;23;20247;-71
2022/11/17 21:31:46;;;;;;;;;;;17.00;57.10;;;;;;6154686;23;19905;-71
2022/11/17 21:34:14;;;;;;;;;;;17.10;57.80;;;;;;6154490;23;19905;-71
2022/11/17 21:36:41;;;;;;;;;;;17.30;57.30;;;;;;6154391;23;20338;-71
2022/11/17 21:39:07;;;;;;;;;;;17.50;56.50;;;;;;6154865;23;19911;-71
2022/11/17 21:41:37;;;;;;;;;;;17.50;55.20;;;;;;6154615;23;19987;-70
2022/11/17 21:44:04;;;;;;;;;;;17.70;55.50;;;;;;6154739;23;19904;-71
2022/11/17 21:46:31;;;;;;;;;;;17.70;53.20;;;;;;6154014;23;20391;-71
2022/11/17 21:48:58;;;;;;;;;;;17.80;53.50;;;;;;6154047;23;19943;-70
2022/11/17 21:51:25;;;;;;;;;;;17.80;54.60;;;;;;6155182;23;19905;-71
2022/11/17 21:53:56;;;;;;;;;;;17.70;53.90;;;;;;6154574;23;19916;-70
2022/11/17 21:56:25;;;;;;;;;;;17.70;54.20;;;;;;6154777;23;19909;-70
2022/11/17 21:58:55;;;;;;;;;;;17.70;55.20;;;;;;6153770;23;19947;-71
2022/11/17 22:01:22;;;;;;;;;;;17.90;55.70;;;;;;6154817;23;20236;-71
2022/11/17 22:03:48;;;;;;;;;;;17.90;54.70;;;;;;6154122;23;19908;-72
2022/11/17 22:06:16;;;;;;;;;;;18.00;55.60;;;;;;6154987;23;19913;-71
2022/11/17 22:56:30;;;;;;;;;;;18.70;53.70;;;;;;6154064;23;19930;-71
2022/11/17 22:58:57;;;;;;;;;;;18.80;55.40;;;;;;6155488;23;19944;-71
2022/11/17 23:01:23;;;;;;;;;;;19.00;55.10;;;;;;6154092;23;19964;-71
2022/11/17 23:03:50;;;;;;;;;;;19.10;54.20;;;;;;6154111;23;19905;-71
2022/11/17 23:06:17;;;;;;;;;;;19.20;54.50;;;;;;6154357;23;19913;-71
2022/11/17 23:08:43;;;;;;;;;;;19.10;54.50;;;;;;6154205;23;19912;-70
2022/11/17 23:11:10;;;;;;;;;;;18.90;52.80;;;;;;6154509;23;20236;-71
2022/11/17 23:13:37;;;;;;;;;;;19.00;54.40;;;;;;6155424;23;19945;-72
2022/11/17 23:16:04;;;;;;;;;;;19.00;54.40;;;;;;6155325;23;19928;-71
2022/11/17 23:18:31;;;;;;;;;;;19.00;54.80;;;;;;6155613;23;19908;-71
2022/11/17 23:21:01;;;;;;;;;;;19.10;53.60;;;;;;6129189;23;19905;-71
2022/11/17 23:23:31;;;;;;;;;;;19.20;54.50;;;;;;6155347;23;19912;-71
2022/11/17 23:26:00;;;;;;;;;;;19.30;55.40;;;;;;6155553;23;19917;-73
2022/11/17 23:28:27;;;;;;;;;;;19.30;54.10;;;;;;6155371;23;19915;-72
2022/11/17 23:30:57;;;;;;;;;;;19.20;53.00;;;;;;6154236;23;19905;-72
2022/11/17 23:33:23;;;;;;;;;;;19.20;54.20;;;;;;6155619;23;20363;-71
2022/11/17 23:35:50;;;;;;;;;;;19.20;54.50;;;;;;6155456;23;19905;-72
2022/11/17 23:38:17;;;;;;;;;;;19.30;52.60;;;;;;6155566;23;19951;-71
2022/11/17 23:40:43;;;;;;;;;;;19.20;52.40;;;;;;6154687;23;20217;-71
2022/11/17 23:43:10;;;;;;;;;;;19.30;53.40;;;;;;6152455;23;19912;-72
2022/11/17 23:45:36;;;;;;;;;;;19.50;53.50;;;;;;6151805;23;19938;-71
2022/11/17 23:48:03;;;;;;;;;;;19.40;54.80;;;;;;6154717;23;20274;-72
2022/11/17 23:50:30;;;;;;;;;;;19.50;52.60;;;;;;6154034;23;20264;-71
2022/11/17 23:52:56;;;;;;;;;;;19.50;54.90;;;;;;6155081;23;19909;-71
2022/11/17 23:55:23;;;;;;;;;;;19.40;54.60;;;;;;6153983;23;19955;-71
2022/11/17 23:57:49;;;;;;;;;;;19.20;54.30;;;;;;6154700;23;20317;-71
